sensor_id;sensor_type;location;lat;lon;timestamp;temperature;humidity
46123;DHT22;31856;-35.404;149.120;2024-02-04T00:01:07;27.80;48.00
46123;DHT22;31856;-35.404;149.120;2024-02-04T00:03:37;28.00;48.10
46123;DHT22;31856;-35.404;149.120;2024-02-04T00:06:06;28.20;48.70
46123;DHT22;31856;-35.404;149.120;2024-02-04T00:08:36;28.30;48.20
46123;DHT22;31856;-35.404;149.120;2024-02-04T00:11:06;28.40;46.70
46123;DHT22;31856;-35.404;149.120;2024-02-04T00:13:37;28.50;47.40
46123;DHT22;31856;-35.404;149.120;2024-02-04T00:16:07;28.70;47.60
46123;DHT22;31856;-35.404;149.120;2024-02-04T00:18:37;29.10;46.60
46123;DHT22;31856;-35.404;149.120;2024-02-04T00:21:08;29.30;45.20
46123;DHT22;31856;-35.404;149.120;2024-02-04T00:23:38;29.40;45.10
46123;DHT22;31856;-35.404;149.120;2024-02-04T00:26:08;29.60;45.10
46123;DHT22;31856;-35.404;149.120;2024-02-04T00:28:38;29.60;45.20
46123;DHT22;31856;-35.404;149.120;2024-02-04T00:31:11;29.50;45.00
46123;DHT22;31856;-35.404;149.120;2024-02-04T00:33:42;29.50;45.20
46123;DHT22;31856;-35.404;149.120;2024-02-04T00:36:11;29.40;45.70
46123;DHT22;31856;-35.404;149.120;2024-02-04T00:38:41;29.50;46.00
46123;DHT22;31856;-35.404;149.120;2024-02-04T00:41:10;29.50;46.20
46123;DHT22;31856;-35.404;149.120;2024-02-04T00:43:40;29.40;43.80
46123;DHT22;31856;-35.404;149.120;2024-02-04T00:46:09;29.20;43.70
46123;DHT22;31856;-35.404;149.120;2024-02-04T00:48:42;29.20;44.80
46123;DHT22;31856;-35.404;149.120;2024-02-04T00:51:13;29.30;45.20
46123;DHT22;31856;-35.404;149.120;2024-02-04T00:53:46;29.30;43.70
46123;DHT22;31856;-35.404;149.120;2024-02-04T00:56:16;29.40;44.30
46123;DHT22;31856;-35.404;149.120;2024-02-04T00:58:46;29.50;44.10
46123;DHT22;31856;-35.404;149.120;2024-02-04T01:01:16;29.70;44.10
46123;DHT22;31856;-35.404;149.120;2024-02-04T01:03:46;29.80;44.00
46123;DHT22;31856;-35.404;149.120;2024-02-04T01:06:17;29.90;43.60
46123;DHT22;31856;-35.404;149.120;2024-02-04T01:08:47;30.10;43.20
46123;DHT22;31856;-35.404;149.120;2024-02-04T01:11:16;30.10;42.90
46123;DHT22;31856;-35.404;149.120;2024-02-04T01:13:47;30.20;42.80
46123;DHT22;31856;-35.404;149.120;2024-02-04T01:16:16;30.50;40.60
46123;DHT22;31856;-35.404;149.120;2024-02-04T01:18:46;30.70;39.70
46123;DHT22;31856;-35.404;149.120;2024-02-04T01:21:17;30.80;40.90
46123;DHT22;31856;-35.404;149.120;2024-02-04T01:23:47;30.90;41.00
46123;DHT22;31856;-35.404;149.120;2024-02-04T01:26:16;31.00;40.20
46123;DHT22;31856;-35.404;149.120;2024-02-04T01:28:46;30.90;39.30
46123;DHT22;31856;-35.404;149.120;2024-02-04T01:31:16;30.90;38.70
46123;DHT22;31856;-35.404;149.120;2024-02-04T01:33:45;30.80;38.90
46123;DHT22;31856;-35.404;149.120;2024-02-04T01:36:15;30.80;39.40
46123;DHT22;31856;-35.404;149.120;2024-02-04T01:38:45;30.90;39.60
46123;DHT22;31856;-35.404;149.120;2024-02-04T01:41:15;30.90;39.80
46123;DHT22;31856;-35.404;149.120;2024-02-04T01:43:45;31.10;39.70
46123;DHT22;31856;-35.404;149.120;2024-02-04T01:46:15;31.30;39.30
46123;DHT22;31856;-35.404;149.120;2024-02-04T01:48:45;31.40;38.80
46123;DHT22;31856;-35.404;149.120;2024-02-04T01:51:16;31.70;38.50
46123;DHT22;31856;-35.404;149.120;2024-02-04T01:53:46;31.90;35.90
46123;DHT22;31856;-35.404;149.120;2024-02-04T01:56:17;31.90;36.40
46123;DHT22;31856;-35.404;149.120;2024-02-04T01:58:46;31.90;37.10
46123;DHT22;31856;-35.404;149.120;2024-02-04T02:01:17;31.90;37.40
46123;DHT22;31856;-35.404;149.120;2024-02-04T02:03:47;32.00;35.30
46123;DHT22;31856;-35.404;149.120;2024-02-04T02:06:19;32.00;35.40
46123;DHT22;31856;-35.404;149.120;2024-02-04T02:08:49;31.90;36.30
46123;DHT22;31856;-35.404;149.120;2024-02-04T03:34:11;32.40;35.50
46123;DHT22;31856;-35.404;149.120;2024-02-04T03:36:41;32.30;34.60
46123;DHT22;31856;-35.404;149.120;2024-02-04T03:39:11;32.40;34.80
46123;DHT22;31856;-35.404;149.120;2024-02-04T03:41:40;32.50;35.20
46123;DHT22;31856;-35.404;149.120;2024-02-04T03:44:11;32.70;34.50
46123;DHT22;31856;-35.404;149.120;2024-02-04T03:46:41;32.80;34.80
46123;DHT22;31856;-35.404;149.120;2024-02-04T03:49:11;33.10;33.50
46123;DHT22;31856;-35.404;149.120;2024-02-04T03:51:41;33.00;31.10
46123;DHT22;31856;-35.404;149.120;2024-02-04T03:54:10;32.80;32.20
46123;DHT22;31856;-35.404;149.120;2024-02-04T03:56:41;32.70;31.70
46123;DHT22;31856;-35.404;149.120;2024-02-04T03:59:11;32.70;32.80
46123;DHT22;31856;-35.404;149.120;2024-02-04T04:01:46;32.70;32.20
46123;DHT22;31856;-35.404;149.120;2024-02-04T04:04:20;32.70;32.10
46123;DHT22;31856;-35.404;149.120;2024-02-04T04:06:50;32.70;32.80
46123;DHT22;31856;-35.404;149.120;2024-02-04T04:09:20;32.70;33.90
46123;DHT22;31856;-35.404;149.120;2024-02-04T04:11:50;32.70;33.70
46123;DHT22;31856;-35.404;149.120;2024-02-04T04:14:19;32.70;33.30
46123;DHT22;31856;-35.404;149.120;2024-02-04T04:16:49;32.60;33.30
46123;DHT22;31856;-35.404;149.120;2024-02-04T04:19:19;32.50;32.00
46123;DHT22;31856;-35.404;149.120;2024-02-04T04:21:49;32.40;32.90
46123;DHT22;31856;-35.404;149.120;2024-02-04T04:24:20;32.40;33.50
46123;DHT22;31856;-35.404;149.120;2024-02-04T04:26:51;32.40;32.80
46123;DHT22;31856;-35.404;149.120;2024-02-04T04:29:21;32.20;30.90
46123;DHT22;31856;-35.404;149.120;2024-02-04T04:31:51;32.30;31.70
46123;DHT22;31856;-35.404;149.120;2024-02-04T04:34:21;32.10;31.40
46123;DHT22;31856;-35.404;149.120;2024-02-04T04:36:51;32.00;31.90
46123;DHT22;31856;-35.404;149.120;2024-02-04T04:39:21;32.00;32.40
46123;DHT22;31856;-35.404;149.120;2024-02-04T04:41:51;32.10;31.70
46123;DHT22;31856;-35.404;149.120;2024-02-04T04:44:21;32.10;31.90
46123;DHT22;31856;-35.404;149.120;2024-02-04T04:46:51;32.20;31.50
46123;DHT22;31856;-35.404;149.120;2024-02-04T04:49:21;32.10;32.10
46123;DHT22;31856;-35.404;149.120;2024-02-04T04:51:51;32.20;31.30
46123;DHT22;31856;-35.404;149.120;2024-02-04T04:54:22;32.20;31.40
46123;DHT22;31856;-35.404;149.120;2024-02-04T04:56:52;32.10;31.90
46123;DHT22;31856;-35.404;149.120;2024-02-04T04:59:21;32.00;31.40
46123;DHT22;31856;-35.404;149.120;2024-02-04T05:01:51;32.10;32.10
46123;DHT22;31856;-35.404;149.120;2024-02-04T05:04:21;32.10;32.50
46123;DHT22;31856;-35.404;149.120;2024-02-04T05:06:54;32.10;32.40
46123;DHT22;31856;-35.404;149.120;2024-02-04T05:09:25;32.10;31.10
46123;DHT22;31856;-35.404;149.120;2024-02-04T05:11:55;32.20;29.50
46123;DHT22;31856;-35.404;149.120;2024-02-04T05:14:25;32.20;29.20
46123;DHT22;31856;-35.404;149.120;2024-02-04T05:16:55;32.30;30.70
46123;DHT22;31856;-35.404;149.120;2024-02-04T06:01:09;32.90;28.70
46123;DHT22;31856;-35.404;149.120;2024-02-04T06:03:41;33.00;29.00
46123;DHT22;31856;-35.404;149.120;2024-02-04T06:06:17;33.00;29.20
46123;DHT22;31856;-35.404;149.120;2024-02-04T06:08:48;33.10;28.40
46123;DHT22;31856;-35.404;149.120;2024-02-04T06:11:18;33.20;28.50
46123;DHT22;31856;-35.404;149.120;2024-02-04T06:13:49;33.20;29.00
46123;DHT22;31856;-35.404;149.120;2024-02-04T06:16:19;33.10;28.70
46123;DHT22;31856;-35.404;149.120;2024-02-04T06:18:48;33.00;29.00
46123;DHT22;31856;-35.404;149.120;2024-02-04T06:21:18;33.00;29.10
46123;DHT22;31856;-35.404;149.120;2024-02-04T06:23:48;32.90;29.00
46123;DHT22;31856;-35.404;149.120;2024-02-04T06:26:17;32.70;29.30
46123;DHT22;31856;-35.404;149.120;2024-02-04T06:28:47;32.80;29.90
46123;DHT22;31856;-35.404;149.120;2024-02-04T06:31:19;33.00;30.10
46123;DHT22;31856;-35.404;149.120;2024-02-04T06:33:48;33.10;30.30
46123;DHT22;31856;-35.404;149.120;2024-02-04T06:36:19;33.10;29.60
46123;DHT22;31856;-35.404;149.120;2024-02-04T06:38:49;33.10;30.30
46123;DHT22;31856;-35.404;149.120;2024-02-04T06:41:18;33.00;30.30
46123;DHT22;31856;-35.404;149.120;2024-02-04T06:43:49;33.00;30.50
46123;DHT22;31856;-35.404;149.120;2024-02-04T06:46:28;33.10;30.90
46123;DHT22;31856;-35.404;149.120;2024-02-04T06:48:58;33.20;30.20
46123;DHT22;31856;-35.404;149.120;2024-02-04T06:51:29;33.20;29.20
46123;DHT22;31856;-35.404;149.120;2024-02-04T06:54:00;33.30;30.20
46123;DHT22;31856;-35.404;149.120;2024-02-04T06:56:30;33.30;29.60
46123;DHT22;31856;-35.404;149.120;2024-02-04T06:59:00;33.30;30.00
46123;DHT22;31856;-35.404;149.120;2024-02-04T07:01:29;33.20;29.30
46123;DHT22;31856;-35.404;149.120;2024-02-04T07:04:00;33.20;29.10
46123;DHT22;31856;-35.404;149.120;2024-02-04T07:06:30;33.20;29.90
46123;DHT22;31856;-35.404;149.120;2024-02-04T07:09:00;33.00;29.90
46123;DHT22;31856;-35.404;149.120;2024-02-04T07:11:30;32.90;29.80
46123;DHT22;31856;-35.404;149.120;2024-02-04T07:14:00;32.70;29.50
46123;DHT22;31856;-35.404;149.120;2024-02-04T07:16:30;32.60;30.20
46123;DHT22;31856;-35.404;149.120;2024-02-04T07:18:59;32.50;30.40
46123;DHT22;31856;-35.404;149.120;2024-02-04T07:21:29;32.40;30.50
46123;DHT22;31856;-35.404;149.120;2024-02-04T07:23:59;32.30;31.00
46123;DHT22;31856;-35.404;149.120;2024-02-04T07:26:28;32.30;31.70
46123;DHT22;31856;-35.404;149.120;2024-02-04T07:28:58;32.20;32.00
46123;DHT22;31856;-35.404;149.120;2024-02-04T07:31:29;32.20;32.30
46123;DHT22;31856;-35.404;149.120;2024-02-04T07:34:00;32.10;32.50
46123;DHT22;31856;-35.404;149.120;2024-02-04T07:36:31;32.00;31.80
46123;DHT22;31856;-35.404;149.120;2024-02-04T07:39:01;32.00;32.40
46123;DHT22;31856;-35.404;149.120;2024-02-04T07:41:34;31.90;33.10
46123;DHT22;31856;-35.404;149.120;2024-02-04T07:44:04;31.70;31.90
46123;DHT22;31856;-35.404;149.120;2024-02-04T07:46:33;31.70;31.80
46123;DHT22;31856;-35.404;149.120;2024-02-04T08:17:27;30.80;35.50
46123;DHT22;31856;-35.404;149.120;2024-02-04T08:20:00;30.70;35.30
46123;DHT22;31856;-35.404;149.120;2024-02-04T08:22:29;30.70;35.60
46123;DHT22;31856;-35.404;149.120;2024-02-04T08:24:59;30.60;35.60
46123;DHT22;31856;-35.404;149.120;2024-02-04T08:27:30;30.60;35.40
46123;DHT22;31856;-35.404;149.120;2024-02-04T08:29:59;30.60;35.60
46123;DHT22;31856;-35.404;149.120;2024-02-04T08:32:30;30.50;35.70
46123;DHT22;31856;-35.404;149.120;2024-02-04T08:35:00;30.50;36.10
46123;DHT22;31856;-35.404;149.120;2024-02-04T08:37:31;30.40;36.20
46123;DHT22;31856;-35.404;149.120;2024-02-04T08:40:06;30.40;36.00
46123;DHT22;31856;-35.404;149.120;2024-02-04T08:42:36;30.30;35.50
46123;DHT22;31856;-35.404;149.120;2024-02-04T08:45:07;30.30;36.00
46123;DHT22;31856;-35.404;149.120;2024-02-04T08:47:36;30.20;35.60
46123;DHT22;31856;-35.404;149.120;2024-02-04T08:50:07;30.20;35.40
46123;DHT22;31856;-35.404;149.120;2024-02-04T08:52:37;30.20;35.60
46123;DHT22;31856;-35.404;149.120;2024-02-04T08:55:07;30.10;35.80
46123;DHT22;31856;-35.404;149.120;2024-02-04T08:57:37;30.00;35.90
46123;DHT22;31856;-35.404;149.120;2024-02-04T09:00:08;30.00;36.00
46123;DHT22;31856;-35.404;149.120;2024-02-04T09:02:46;29.90;35.90
46123;DHT22;31856;-35.404;149.120;2024-02-04T09:05:16;29.90;36.10
46123;DHT22;31856;-35.404;149.120;2024-02-04T09:07:47;29.80;36.20
46123;DHT22;31856;-35.404;149.120;2024-02-04T09:10:18;29.70;36.30
46123;DHT22;31856;-35.404;149.120;2024-02-04T09:12:48;29.70;36.40
46123;DHT22;31856;-35.404;149.120;2024-02-04T09:15:18;29.50;36.60
46123;DHT22;31856;-35.404;149.120;2024-02-04T09:49:48;28.60;40.00
46123;DHT22;31856;-35.404;149.120;2024-02-04T09:52:18;28.50;40.50
46123;DHT22;31856;-35.404;149.120;2024-02-04T09:54:55;28.40;41.00
46123;DHT22;31856;-35.404;149.120;2024-02-04T09:57:28;28.30;40.80
46123;DHT22;31856;-35.404;149.120;2024-02-04T09:59:58;28.30;41.10
46123;DHT22;31856;-35.404;149.120;2024-02-04T10:02:29;28.20;41.20
46123;DHT22;31856;-35.404;149.120;2024-02-04T10:05:00;28.20;40.90
46123;DHT22;31856;-35.404;149.120;2024-02-04T10:07:32;28.20;41.20
46123;DHT22;31856;-35.404;149.120;2024-02-04T10:10:02;28.20;41.30
46123;DHT22;31856;-35.404;149.120;2024-02-04T10:12:32;28.20;41.80
46123;DHT22;31856;-35.404;149.120;2024-02-04T10:15:05;28.10;42.20
46123;DHT22;31856;-35.404;149.120;2024-02-04T10:17:35;28.00;42.80
46123;DHT22;31856;-35.404;149.120;2024-02-04T10:20:05;27.90;42.50
46123;DHT22;31856;-35.404;149.120;2024-02-04T10:22:35;27.90;42.70
46123;DHT22;31856;-35.404;149.120;2024-02-04T10:25:07;27.80;43.30
46123;DHT22;31856;-35.404;149.120;2024-02-04T10:27:38;27.80;43.20
46123;DHT22;31856;-35.404;149.120;2024-02-04T10:30:09;27.80;43.80
46123;DHT22;31856;-35.404;149.120;2024-02-04T10:32:39;27.70;43.80
46123;DHT22;31856;-35.404;149.120;2024-02-04T10:35:09;27.70;43.70
46123;DHT22;31856;-35.404;149.120;2024-02-04T10:37:38;27.70;43.60
46123;DHT22;31856;-35.404;149.120;2024-02-04T10:40:08;27.60;44.00
46123;DHT22;31856;-35.404;149.120;2024-02-04T10:42:38;27.50;44.40
46123;DHT22;31856;-35.404;149.120;2024-02-04T10:45:10;27.40;45.10
46123;DHT22;31856;-35.404;149.120;2024-02-04T10:47:40;27.30;45.20
46123;DHT22;31856;-35.404;149.120;2024-02-04T11:11:25;26.90;46.90
46123;DHT22;31856;-35.404;149.120;2024-02-04T11:13:56;26.80;47.00
46123;DHT22;31856;-35.404;149.120;2024-02-04T11:19:33;26.60;47.30
46123;DHT22;31856;-35.404;149.120;2024-02-04T11:25:17;26.50;47.50
46123;DHT22;31856;-35.404;149.120;2024-02-04T11:27:50;26.50;47.40
46123;DHT22;31856;-35.404;149.120;2024-02-04T11:30:20;26.50;47.30
46123;DHT22;31856;-35.404;149.120;2024-02-04T11:32:50;26.50;47.50
46123;DHT22;31856;-35.404;149.120;2024-02-04T11:35:20;26.50;48.00
46123;DHT22;31856;-35.404;149.120;2024-02-04T11:37:53;26.40;47.90
46123;DHT22;31856;-35.404;149.120;2024-02-04T11:40:35;26.40;47.70
46123;DHT22;31856;-35.404;149.120;2024-02-04T11:43:06;26.40;48.10
46123;DHT22;31856;-35.404;149.120;2024-02-04T11:45:42;26.40;48.00
46123;DHT22;31856;-35.404;149.120;2024-02-04T11:48:12;26.30;48.20
46123;DHT22;31856;-35.404;149.120;2024-02-04T11:50:42;26.30;48.50
46123;DHT22;31856;-35.404;149.120;2024-02-04T11:53:12;26.20;48.30
46123;DHT22;31856;-35.404;149.120;2024-02-04T11:55:42;26.20;48.30
46123;DHT22;31856;-35.404;149.120;2024-02-04T11:58:13;26.20;48.20
46123;DHT22;31856;-35.404;149.120;2024-02-04T12:00:43;26.20;48.60
46123;DHT22;31856;-35.404;149.120;2024-02-04T12:03:27;26.20;49.10
46123;DHT22;31856;-35.404;149.120;2024-02-04T12:05:57;26.10;48.60
46123;DHT22;31856;-35.404;149.120;2024-02-04T12:08:28;26.10;49.10
46123;DHT22;31856;-35.404;149.120;2024-02-04T12:10:59;26.10;49.60
46123;DHT22;31856;-35.404;149.120;2024-02-04T12:13:28;26.00;49.80
46123;DHT22;31856;-35.404;149.120;2024-02-04T12:15:58;26.00;49.80
46123;DHT22;31856;-35.404;149.120;2024-02-04T12:18:28;26.00;50.10
46123;DHT22;31856;-35.404;149.120;2024-02-04T12:20:57;25.90;50.00
46123;DHT22;31856;-35.404;149.120;2024-02-04T12:23:27;25.80;50.00
46123;DHT22;31856;-35.404;149.120;2024-02-04T12:25:57;25.80;50.30
46123;DHT22;31856;-35.404;149.120;2024-02-04T12:28:27;25.80;49.80
46123;DHT22;31856;-35.404;149.120;2024-02-04T12:30:56;25.80;50.60
46123;DHT22;31856;-35.404;149.120;2024-02-04T12:33:29;25.80;51.00
46123;DHT22;31856;-35.404;149.120;2024-02-04T12:35:58;25.80;51.40
46123;DHT22;31856;-35.404;149.120;2024-02-04T12:38:29;25.70;50.70
46123;DHT22;31856;-35.404;149.120;2024-02-04T12:41:04;25.70;50.30
46123;DHT22;31856;-35.404;149.120;2024-02-04T12:43:34;25.70;50.30
46123;DHT22;31856;-35.404;149.120;2024-02-04T12:46:06;25.70;51.40
46123;DHT22;31856;-35.404;149.120;2024-02-04T20:32:32;22.60;74.50
46123;DHT22;31856;-35.404;149.120;2024-02-04T20:35:03;22.60;74.20
46123;DHT22;31856;-35.404;149.120;2024-02-04T20:37:32;22.50;75.00
46123;DHT22;31856;-35.404;149.120;2024-02-04T20:40:03;22.50;74.60
46123;DHT22;31856;-35.404;149.120;2024-02-04T20:42:33;22.50;75.00
46123;DHT22;31856;-35.404;149.120;2024-02-04T20:45:04;22.50;75.60
46123;DHT22;31856;-35.404;149.120;2024-02-04T20:47:34;22.50;75.60
46123;DHT22;31856;-35.404;149.120;2024-02-04T20:50:03;22.60;75.30
46123;DHT22;31856;-35.404;149.120;2024-02-04T20:52:34;22.50;75.20
46123;DHT22;31856;-35.404;149.120;2024-02-04T20:55:04;22.50;75.30
46123;DHT22;31856;-35.404;149.120;2024-02-04T20:57:34;22.60;74.90
46123;DHT22;31856;-35.404;149.120;2024-02-04T21:00:05;22.50;75.10
46123;DHT22;31856;-35.404;149.120;2024-02-04T21:02:39;22.60;75.70
46123;DHT22;31856;-35.404;149.120;2024-02-04T21:05:11;22.50;75.80
46123;DHT22;31856;-35.404;149.120;2024-02-04T21:07:41;22.50;75.60
46123;DHT22;31856;-35.404;149.120;2024-02-04T21:10:11;22.60;74.90
46123;DHT22;31856;-35.404;149.120;2024-02-04T21:12:41;22.60;75.70
46123;DHT22;31856;-35.404;149.120;2024-02-04T21:15:11;22.60;76.40
46123;DHT22;31856;-35.404;149.120;2024-02-04T21:17:40;22.60;76.60
46123;DHT22;31856;-35.404;149.120;2024-02-04T21:20:10;22.60;76.20
46123;DHT22;31856;-35.404;149.120;2024-02-04T21:22:42;22.60;76.30
46123;DHT22;31856;-35.404;149.120;2024-02-04T21:25:13;22.60;76.90
46123;DHT22;31856;-35.404;149.120;2024-02-04T21:27:42;22.60;77.20
46123;DHT22;31856;-35.404;149.120;2024-02-04T21:30:12;22.60;77.10
46123;DHT22;31856;-35.404;149.120;2024-02-04T21:32:42;22.60;77.40
46123;DHT22;31856;-35.404;149.120;2024-02-04T21:35:14;22.60;77.60
46123;DHT22;31856;-35.404;149.120;2024-02-04T21:37:43;22.60;77.60
46123;DHT22;31856;-35.404;149.120;2024-02-04T21:40:13;22.60;77.90
46123;DHT22;31856;-35.404;149.120;2024-02-04T21:42:42;22.60;77.30
46123;DHT22;31856;-35.404;149.120;2024-02-04T21:45:12;22.60;77.60
46123;DHT22;31856;-35.404;149.120;2024-02-04T21:47:42;22.60;77.80
46123;DHT22;31856;-35.404;149.120;2024-02-04T21:50:11;22.60;78.20
46123;DHT22;31856;-35.404;149.120;2024-02-04T21:52:41;22.70;78.20
46123;DHT22;31856;-35.404;149.120;2024-02-04T21:55:10;22.70;78.30
46123;DHT22;31856;-35.404;149.120;2024-02-04T21:57:40;22.70;78.20
46123;DHT22;31856;-35.404;149.120;2024-02-04T22:00:09;22.70;78.40
46123;DHT22;31856;-35.404;149.120;2024-02-04T22:02:40;22.70;78.80
46123;DHT22;31856;-35.404;149.120;2024-02-04T22:05:10;22.70;78.10
46123;DHT22;31856;-35.404;149.120;2024-02-04T22:07:40;22.70;78.20
46123;DHT22;31856;-35.404;149.120;2024-02-04T22:10:09;22.70;78.70
46123;DHT22;31856;-35.404;149.120;2024-02-04T22:12:39;22.80;78.40
46123;DHT22;31856;-35.404;149.120;2024-02-04T22:15:09;22.80;78.70
46123;DHT22;31856;-35.404;149.120;2024-02-04T22:17:38;22.70;78.50
46123;DHT22;31856;-35.404;149.120;2024-02-04T22:20:09;22.80;78.10
46123;DHT22;31856;-35.404;149.120;2024-02-04T22:22:39;22.80;78.40
46123;DHT22;31856;-35.404;149.120;2024-02-04T22:25:09;22.80;78.90
46123;DHT22;31856;-35.404;149.120;2024-02-04T22:27:41;22.80;79.10
46123;DHT22;31856;-35.404;149.120;2024-02-04T23:30:46;23.50;78.40
46123;DHT22;31856;-35.404;149.120;2024-02-04T23:33:16;23.80;79.20
46123;DHT22;31856;-35.404;149.120;2024-02-04T23:35:46;23.80;78.50
46123;DHT22;31856;-35.404;149.120;2024-02-04T23:38:16;23.80;78.30
46123;DHT22;31856;-35.404;149.120;2024-02-04T23:40:46;23.70;78.30
46123;DHT22;31856;-35.404;149.120;2024-02-04T23:43:15;23.70;77.60
46123;DHT22;31856;-35.404;149.120;2024-02-04T23:45:45;23.70;77.90
46123;DHT22;31856;-35.404;149.120;2024-02-04T23:48:14;23.60;77.70
46123;DHT22;31856;-35.404;149.120;2024-02-04T23:50:44;23.60;77.50
46123;DHT22;31856;-35.404;149.120;2024-02-04T23:53:16;23.50;77.10
46123;DHT22;31856;-35.404;149.120;2024-02-04T23:55:45;23.50;77.10
46123;DHT22;31856;-35.404;149.120;2024-02-04T23:58:15;23.40;77.50
